Time;durP1;ratioP1;P1;durP2;ratioP2;P2;SDS_P1;SDS_P2;PMS_P1;PMS_P2;Temp;Humidity;BMP_temperature;BMP_pressure;BME280_temperature;BME280_humidity;BME280_pressure;Samples;Min_cycle;Max_cycle;Signal;HPM_P1;HPM_P2
2022/12/16 00:01:13;;;;;;;80.53;72.10;;;0.10;99.90;;;;;;5034390;28;20106;-78
2022/12/16 00:03:40;;;;;;;67.37;60.53;;;0.20;99.90;;;;;;5025799;28;20056;-78
2022/12/16 00:06:07;;;;;;;70.10;63.10;;;0.00;99.90;;;;;;5027585;28;20052;-78
2022/12/16 00:08:36;;;;;;;70.97;63.53;;;0.10;99.90;;;;;;5024278;28;20053;-79
2022/12/16 00:11:03;;;;;;;79.27;70.93;;;0.10;99.90;;;;;;5041146;28;20053;-79
2022/12/16 00:13:30;;;;;;;82.57;73.83;;;0.10;99.90;;;;;;5036376;28;20586;-78
2022/12/16 00:15:56;;;;;;;79.47;71.10;;;0.10;99.90;;;;;;5041178;28;20495;-70
2022/12/16 00:18:22;;;;;;;80.90;72.33;;;0.10;99.90;;;;;;5019752;28;20103;-70
2022/12/16 00:20:53;;;;;;;72.47;64.97;;;0.10;99.90;;;;;;5025496;28;20486;-70
2022/12/16 00:23:20;;;;;;;73.30;65.67;;;0.10;99.90;;;;;;5036090;28;20134;-70
2022/12/16 00:25:47;;;;;;;79.90;71.50;;;0.10;99.90;;;;;;5042315;28;20044;-70
2022/12/16 00:28:16;;;;;;;66.13;59.60;;;0.10;99.90;;;;;;5027880;28;20124;-70
2022/12/16 00:30:43;;;;;;;69.50;62.57;;;0.10;99.90;;;;;;5032540;28;20045;-70
2022/12/16 00:33:09;;;;;;;64.43;57.93;;;0.10;99.90;;;;;;5034316;28;20068;-70
2022/12/16 00:35:35;;;;;;;64.53;58.07;;;0.10;99.90;;;;;;5024542;28;20046;-70
2022/12/16 00:38:00;;;;;;;72.37;64.57;;;0.10;99.90;;;;;;5020856;28;20044;-69
2022/12/16 00:40:26;;;;;;;70.73;63.43;;;0.10;99.90;;;;;;4990953;28;20044;-71
2022/12/16 00:42:52;;;;;;;69.93;62.67;;;0.10;99.90;;;;;;5036861;28;20044;-70
2022/12/16 00:45:18;;;;;;;73.63;66.20;;;0.10;99.90;;;;;;5045923;28;20039;-70
2022/12/16 00:47:44;;;;;;;61.80;55.60;;;0.00;99.90;;;;;;5041640;28;20040;-70
2022/12/16 00:50:10;;;;;;;85.73;76.53;;;0.00;99.90;;;;;;5003939;28;20071;-70
2022/12/16 00:52:36;;;;;;;82.90;74.00;;;0.00;99.90;;;;;;5023257;28;20120;-70
2022/12/16 00:55:03;;;;;;;88.50;78.77;;;0.00;99.90;;;;;;5011922;28;20056;-70
2022/12/16 00:57:28;;;;;;;69.43;62.13;;;-0.10;99.90;;;;;;5021827;28;20048;-70
2022/12/16 00:59:54;;;;;;;66.53;60.00;;;-0.10;99.90;;;;;;5044530;28;20498;-70
2022/12/16 01:02:20;;;;;;;78.27;69.53;;;-0.10;99.90;;;;;;5026678;28;20048;-78
2022/12/16 01:04:46;;;;;;;87.90;78.30;;;-0.10;99.90;;;;;;5027958;28;20040;-78
2022/12/16 01:07:11;;;;;;;75.20;67.33;;;-0.10;99.90;;;;;;5022826;28;20048;-78
2022/12/16 01:09:37;;;;;;;76.47;68.43;;;-0.10;99.90;;;;;;5030805;28;20048;-78
2022/12/16 01:12:03;;;;;;;71.10;63.40;;;-0.10;99.90;;;;;;5030089;28;20048;-78
2022/12/16 01:14:29;;;;;;;73.63;65.93;;;-0.10;99.90;;;;;;5022225;28;20313;-78
2022/12/16 01:16:54;;;;;;;64.63;58.03;;;-0.10;99.90;;;;;;5023863;28;20098;-79
2022/12/16 01:19:20;;;;;;;86.50;77.20;;;0.00;99.90;;;;;;5024236;28;20073;-78
2022/12/16 01:21:46;;;;;;;87.87;78.53;;;0.00;99.90;;;;;;5023988;28;20182;-78
2022/12/16 01:24:12;;;;;;;65.57;58.80;;;0.00;99.90;;;;;;5025672;28;20155;-78
2022/12/16 01:26:38;;;;;;;64.57;58.03;;;0.00;99.90;;;;;;5018365;28;20045;-78
2022/12/16 01:29:05;;;;;;;72.43;64.67;;;0.00;99.90;;;;;;5008227;28;20682;-78
2022/12/16 01:31:31;;;;;;;67.47;60.67;;;0.00;99.90;;;;;;5006498;28;20102;-78
2022/12/16 01:33:57;;;;;;;64.10;57.60;;;0.00;99.90;;;;;;5037049;28;20106;-79
2022/12/16 01:36:25;;;;;;;68.60;61.27;;;0.00;99.90;;;;;;5024516;28;20044;-78
2022/12/16 01:38:54;;;;;;;65.00;58.23;;;0.00;99.90;;;;;;5037721;28;20095;-78
2022/12/16 01:41:20;;;;;;;70.13;62.80;;;0.00;99.90;;;;;;4993814;28;20036;-78
2022/12/16 01:43:46;;;;;;;64.93;58.53;;;-0.10;99.90;;;;;;5036803;28;20518;-78
2022/12/16 01:46:12;;;;;;;64.97;58.37;;;-0.10;99.90;;;;;;5026995;28;20127;-78
2022/12/16 01:48:58;;;;;;;61.30;55.20;;;-0.10;99.90;;;;;;5043475;28;20190;-78
2022/12/16 01:51:35;;;;;;;65.93;59.30;;;-0.10;99.90;;;;;;5037693;28;20037;-78
2022/12/16 01:54:14;;;;;;;71.93;64.53;;;-0.10;99.90;;;;;;5016400;28;20128;-78
2022/12/16 01:56:45;;;;;;;84.83;75.63;;;-0.10;99.90;;;;;;5037697;28;20057;-78
2022/12/16 01:59:14;;;;;;;86.20;76.77;;;-0.10;99.90;;;;;;5041225;28;20049;-78
2022/12/16 02:01:41;;;;;;;88.97;79.33;;;-0.10;99.90;;;;;;5041815;28;20927;-78
2022/12/16 02:04:06;;;;;;;89.43;79.57;;;-0.10;99.90;;;;;;5022191;28;20265;-78
2022/12/16 02:06:32;;;;;;;74.67;66.93;;;-0.10;99.90;;;;;;5020688;28;20040;-78
2022/12/16 02:09:02;;;;;;;84.57;75.53;;;-0.10;99.90;;;;;;4990845;28;20499;-78
2022/12/16 02:11:49;;;;;;;74.53;66.87;;;-0.10;99.90;;;;;;5017531;28;20058;-78
2022/12/16 02:14:20;;;;;;;88.43;78.93;;;-0.10;99.90;;;;;;5020209;28;20082;-78
2022/12/16 02:16:59;;;;;;;86.43;77.03;;;0.00;99.90;;;;;;4993564;28;20491;-78
2022/12/16 02:19:50;;;;;;;88.70;79.10;;;0.00;99.90;;;;;;4994661;28;20044;-78
2022/12/16 02:22:32;;;;;;;100.70;89.83;;;0.00;99.90;;;;;;5020931;28;20038;-78
2022/12/16 02:25:04;;;;;;;92.80;82.97;;;0.00;99.90;;;;;;5021336;28;20494;-78
2022/12/16 02:27:54;;;;;;;95.00;84.60;;;0.00;99.90;;;;;;5018508;28;20052;-78
2022/12/16 02:30:42;;;;;;;96.32;85.55;;;0.00;99.90;;;;;;4993364;28;20440;-77
2022/12/16 02:33:21;;;;;;;96.97;86.47;;;0.00;99.90;;;;;;5019040;28;20545;-77
2022/12/16 02:36:08;;;;;;;76.17;68.37;;;0.00;99.90;;;;;;4991296;28;20096;-79
2022/12/16 02:38:49;;;;;;;72.80;65.33;;;0.00;99.90;;;;;;5016715;28;20198;-79
2022/12/16 02:41:37;;;;;;;93.37;82.80;;;0.00;99.90;;;;;;5018985;28;20067;-79
2022/12/16 02:44:05;;;;;;;92.00;82.40;;;0.00;99.90;;;;;;5004645;28;20538;-80
2022/12/16 02:46:33;;;;;;;83.27;74.90;;;0.00;99.90;;;;;;5017812;28;20068;-79
2022/12/16 02:49:28;;;;;;;78.30;70.47;;;0.00;99.90;;;;;;5003412;28;20053;-79
2022/12/16 02:51:59;;;;;;;87.53;78.33;;;0.00;99.90;;;;;;4989987;28;20595;-79
2022/12/16 02:54:25;;;;;;;73.60;65.93;;;0.00;99.90;;;;;;5019611;28;20141;-79
2022/12/16 02:57:16;;;;;;;82.23;72.80;;;0.00;99.90;;;;;;4995526;28;20126;-77
2022/12/16 03:00:00;;;;;;;75.97;67.77;;;0.00;99.90;;;;;;4987357;28;20053;-77
2022/12/16 03:02:38;;;;;;;86.90;77.87;;;0.00;99.90;;;;;;5009798;28;20052;-77
2022/12/16 03:05:19;;;;;;;88.60;78.97;;;0.00;99.90;;;;;;5009192;28;20053;-77
2022/12/16 03:07:48;;;;;;;92.73;82.90;;;0.00;99.90;;;;;;5016817;28;20037;-77
2022/12/16 03:10:18;;;;;;;91.03;81.00;;;0.00;99.90;;;;;;5011545;28;20060;-77
2022/12/16 03:12:45;;;;;;;90.32;80.90;;;0.00;99.90;;;;;;5010083;28;20466;-77
2022/12/16 03:15:16;;;;;;;97.50;83.77;;;0.10;99.90;;;;;;5029056;28;20106;-78
2022/12/16 03:17:45;;;;;;;85.47;76.40;;;0.00;99.90;;;;;;5029995;28;20051;-78
2022/12/16 03:20:17;;;;;;;83.67;74.80;;;0.00;99.90;;;;;;5028087;28;20110;-77
2022/12/16 03:22:46;;;;;;;80.87;72.27;;;0.10;99.90;;;;;;5037420;28;20036;-78
2022/12/16 03:25:13;;;;;;;77.63;69.63;;;0.10;99.90;;;;;;5038089;28;20074;-78
2022/12/16 03:28:03;;;;;;;66.43;59.67;;;0.00;99.90;;;;;;5043647;28;20064;-78
2022/12/16 03:30:37;;;;;;;83.78;74.85;;;0.10;99.90;;;;;;5039995;28;20041;-78
2022/12/16 03:33:09;;;;;;;93.30;83.07;;;0.00;99.90;;;;;;5040336;28;20136;-78
2022/12/16 03:35:39;;;;;;;91.23;81.33;;;0.10;99.90;;;;;;5030445;28;20110;-78
2022/12/16 03:38:09;;;;;;;84.68;75.63;;;0.10;99.90;;;;;;5024503;28;20053;-77
2022/12/16 03:40:37;;;;;;;85.53;76.65;;;0.00;99.90;;;;;;5025132;28;20055;-77
2022/12/16 03:43:03;;;;;;;81.60;73.00;;;0.10;99.90;;;;;;5028614;28;20049;-77
2022/12/16 03:45:38;;;;;;;82.57;73.80;;;0.10;99.90;;;;;;5039806;28;20047;-77
2022/12/16 03:48:07;;;;;;;75.60;67.90;;;0.10;99.90;;;;;;5041051;28;20119;-77
2022/12/16 03:50:34;;;;;;;77.50;69.47;;;0.10;99.90;;;;;;5023166;28;20816;-78
2022/12/16 03:53:00;;;;;;;74.23;66.37;;;0.10;99.90;;;;;;5035170;28;20182;-78
2022/12/16 03:55:27;;;;;;;73.13;65.13;;;0.10;99.90;;;;;;5029703;28;20064;-77
2022/12/16 03:57:53;;;;;;;70.67;63.10;;;0.10;99.90;;;;;;5035303;28;20550;-77
2022/12/16 04:00:19;;;;;;;68.37;61.07;;;0.20;99.90;;;;;;5023110;28;20052;-77
2022/12/16 04:02:45;;;;;;;58.33;52.40;;;0.20;99.90;;;;;;5045806;28;20045;-77
2022/12/16 04:05:12;;;;;;;60.37;53.90;;;0.20;99.90;;;;;;5025068;28;20139;-77
2022/12/16 04:07:37;;;;;;;46.27;41.67;;;0.20;99.90;;;;;;5010600;28;20067;-70
2022/12/16 04:10:05;;;;;;;46.87;41.87;;;0.20;99.90;;;;;;5023074;28;20121;-69
2022/12/16 04:26:28;;;;;;;24.90;22.30;;;0.20;99.90;;;;;;5036343;28;20391;-70
2022/12/16 04:28:54;;;;;;;22.50;19.03;;;0.20;99.90;;;;;;5009386;28;20040;-69
2022/12/16 04:31:22;;;;;;;21.83;19.40;;;0.20;99.90;;;;;;5027568;28;20155;-69
